Jacinto, Nebraska
Current Conditions -  °F | °C
As of 5:35 AM on Thursday 23 Oct 2014 (Local Time) from KIBM Reporting Station
Clear Clear  
Wind Chill: 29°   Ceiling: Unl
Heat Index: 36°   Visibility: 10mi
Dew Point: 33°   Wind: 9mph
Humidity: 90%   Direction: 280°W
Pressure: 30.11"   Gusts: NA
Location:  41.202°N, 103.47°W
Report Text: KIBM 231135Z AUTO 28008KT 10SM CLR 02/01 A3011 RMK AO2 T00230008
Loading
Personal Weather Stations






























Interactive Weather Map
Tropical Storm Tracking
New forecast layout! Learn more

10-Day Weather Forecast

Advertisements
Track Severe Weather on mobile